PRIVATE WETTERSTATION BILLIGHEIM-ALLFELD                       ZURCK
Wetterdaten: Mittwoch, 20.09.2017
Datum Zeit Temp. A. Temp. A. min Temp. A. max Feuchte A. Luftdruck Regen Wind Richtung Richtung Sonnenschein ET Solar Taupunkt Windchill Windben Empfang
20.09.2017 00:00 10,1 C 10,1 C 10,2 C 89 % 1019,4 hPa 0,0 l/m 0,0 km/h (0 Bft) N 0 0 min 0,000 mm 0 W/m 8,4 C 10,1 C 0,0 km/h (0 Bft) 100 %
20.09.2017 00:10 10,1 C 10,1 C 10,1 C 89 % 1019,5 hPa 0,0 l/m 0,0 km/h (0 Bft) N 0 0 min 0,000 mm 0 W/m 8,4 C 10,1 C 0,0 km/h (0 Bft) 100 %
20.09.2017 00:20 10,1 C 10,1 C 10,1 C 89 % 1019,5 hPa 0,0 l/m 0,0 km/h (0 Bft) N 0 0 min 0,000 mm 0 W/m 8,4 C 10,1 C 0,0 km/h (0 Bft) 100 %
20.09.2017 00:30 10,0 C 10,0 C 10,1 C 89 % 1019,5 hPa 0,0 l/m 0,0 km/h (0 Bft) N 0 0 min 0,000 mm 0 W/m 8,3 C 10,0 C 0,0 km/h (0 Bft) 100 %
20.09.2017 00:40 10,0 C 10,0 C 10,1 C 89 % 1019,6 hPa 0,0 l/m 0,0 km/h (0 Bft) W-NW 292 0 min 0,000 mm 0 W/m 8,3 C 10,0 C 3,2 km/h (1 Bft) 100 %
20.09.2017 00:50 9,9 C 9,9 C 10,0 C 89 % 1019,5 hPa 0,0 l/m 0,0 km/h (0 Bft) N 0 0 min 0,000 mm 0 W/m 8,2 C 9,9 C 0,0 km/h (0 Bft) 100 %
20.09.2017 01:00 9,9 C 9,9 C 9,9 C 89 % 1019,6 hPa 0,0 l/m 0,0 km/h (0 Bft) N 0 0 min 0,000 mm 0 W/m 8,2 C 9,9 C 0,0 km/h (0 Bft) 100 %
20.09.2017 01:10 9,9 C 9,9 C 9,9 C 89 % 1019,6 hPa 0,0 l/m 0,0 km/h (0 Bft) N 0 0 min 0,000 mm 0 W/m 8,2 C 9,9 C 0,0 km/h (0 Bft) 100 %
20.09.2017 01:20 9,9 C 9,8 C 9,9 C 89 % 1019,6 hPa 0,0 l/m 0,0 km/h (0 Bft) W-NW 292 0 min 0,000 mm 0 W/m 8,2 C 9,9 C 1,6 km/h (1 Bft) 100 %
20.09.2017 01:30 9,8 C 9,8 C 9,9 C 89 % 1019,8 hPa 0,0 l/m 0,0 km/h (0 Bft) N 0 0 min 0,000 mm 0 W/m 8,1 C 9,8 C 0,0 km/h (0 Bft) 100 %
20.09.2017 01:40 9,8 C 9,8 C 9,8 C 89 % 1019,6 hPa 0,0 l/m 0,0 km/h (0 Bft) N 0 0 min 0,000 mm 0 W/m 8,1 C 9,8 C 0,0 km/h (0 Bft) 100 %
20.09.2017 01:50 9,7 C 9,7 C 9,8 C 89 % 1019,7 hPa 0,0 l/m 0,0 km/h (0 Bft) N 0 0 min 0,000 mm 0 W/m 8,0 C 9,7 C 0,0 km/h (0 Bft) 100 %
20.09.2017 02:00 9,7 C 9,7 C 9,8 C 89 % 1019,8 hPa 0,0 l/m 0,0 km/h (0 Bft) N 0 0 min 0,000 mm 0 W/m 8,0 C 9,7 C 0,0 km/h (0 Bft) 100 %
20.09.2017 02:10 9,7 C 9,7 C 9,7 C 89 % 1019,7 hPa 0,0 l/m 0,0 km/h (0 Bft) N 0 0 min 0,000 mm 0 W/m 8,0 C 9,7 C 0,0 km/h (0 Bft) 100 %
20.09.2017 02:20 9,7 C 9,7 C 9,7 C 89 % 1019,8 hPa 0,0 l/m 0,0 km/h (0 Bft) N 0 0 min 0,000 mm 0 W/m 8,0 C 9,7 C 0,0 km/h (0 Bft) 100 %
20.09.2017 02:30 9,6 C 9,6 C 9,7 C 89 % 1019,7 hPa 0,0 l/m 0,0 km/h (0 Bft) N 0 0 min 0,000 mm 0 W/m 7,9 C 9,6 C 0,0 km/h (0 Bft) 100 %
20.09.2017 02:40 9,6 C 9,6 C 9,6 C 89 % 1019,6 hPa 0,0 l/m 0,0 km/h (0 Bft) N 0 0 min 0,000 mm 0 W/m 7,9 C 9,6 C 0,0 km/h (0 Bft) 100 %
20.09.2017 02:50 9,6 C 9,6 C 9,6 C 89 % 1019,8 hPa 0,0 l/m 0,0 km/h (0 Bft) N 0 0 min 0,000 mm 0 W/m 7,9 C 9,6 C 0,0 km/h (0 Bft) 100 %
20.09.2017 03:00 9,6 C 9,5 C 9,6 C 89 % 1019,8 hPa 0,0 l/m 0,0 km/h (0 Bft) N 0 0 min 0,000 mm 0 W/m 7,9 C 9,6 C 0,0 km/h (0 Bft) 100 %
20.09.2017 03:10 9,5 C 9,5 C 9,6 C 89 % 1019,7 hPa 0,0 l/m 0,0 km/h (0 Bft) N 0 0 min 0,000 mm 0 W/m 7,8 C 9,5 C 0,0 km/h (0 Bft) 100 %
20.09.2017 03:20 9,4 C 9,4 C 9,5 C 89 % 1019,8 hPa 0,0 l/m 0,0 km/h (0 Bft) N 0 0 min 0,000 mm 0 W/m 7,7 C 9,4 C 0,0 km/h (0 Bft) 100 %
20.09.2017 03:30 9,4 C 9,4 C 9,4 C 89 % 1019,8 hPa 0,0 l/m 0,0 km/h (0 Bft) N 0 0 min 0,000 mm 0 W/m 7,7 C 9,4 C 0,0 km/h (0 Bft) 100 %
20.09.2017 03:40 9,4 C 9,3 C 9,4 C 90 % 1019,7 hPa 0,0 l/m 0,0 km/h (0 Bft) N 0 0 min 0,000 mm 0 W/m 7,8 C 9,4 C 0,0 km/h (0 Bft) 100 %
20.09.2017 03:50 9,3 C 9,3 C 9,4 C 90 % 1019,8 hPa 0,0 l/m 0,0 km/h (0 Bft) W-NW 292 0 min 0,000 mm 0 W/m 7,7 C 9,3 C 3,2 km/h (1 Bft) 100 %
20.09.2017 04:00 9,3 C 9,3 C 9,4 C 90 % 1019,7 hPa 0,0 l/m 0,0 km/h (0 Bft) N 0 0 min 0,000 mm 0 W/m 7,7 C 9,3 C 0,0 km/h (0 Bft) 100 %
20.09.2017 04:10 9,3 C 9,3 C 9,3 C 90 % 1019,7 hPa 0,0 l/m 0,0 km/h (0 Bft) N 0 0 min 0,000 mm 0 W/m 7,7 C 9,3 C 0,0 km/h (0 Bft) 100 %
20.09.2017 04:20 9,2 C 9,2 C 9,3 C 89 % 1019,8 hPa 0,0 l/m 0,0 km/h (0 Bft) W-NW 292 0 min 0,000 mm 0 W/m 7,5 C 9,2 C 1,6 km/h (1 Bft) 100 %
20.09.2017 04:30 9,2 C 9,2 C 9,2 C 89 % 1019,8 hPa 0,0 l/m 3,2 km/h (1 Bft) W-NW 292 0 min 0,000 mm 0 W/m 7,5 C 9,2 C 4,8 km/h (1 Bft) 100 %
20.09.2017 04:40 9,1 C 9,1 C 9,2 C 89 % 1019,9 hPa 0,0 l/m 1,6 km/h (1 Bft) W-NW 292 0 min 0,000 mm 0 W/m 7,4 C 9,1 C 4,8 km/h (1 Bft) 100 %
20.09.2017 04:50 9,1 C 9,1 C 9,1 C 90 % 1020,0 hPa 0,0 l/m 0,0 km/h (0 Bft) W-NW 292 0 min 0,000 mm 0 W/m 7,5 C 9,1 C 4,8 km/h (1 Bft) 100 %
20.09.2017 05:00 9,2 C 9,1 C 9,2 C 90 % 1020,0 hPa 0,0 l/m 0,0 km/h (0 Bft) N 0 0 min 0,000 mm 0 W/m 7,6 C 9,2 C 0,0 km/h (0 Bft) 100 %
20.09.2017 05:10 9,2 C 9,2 C 9,2 C 90 % 1020,1 hPa 0,0 l/m 0,0 km/h (0 Bft) N 0 0 min 0,000 mm 0 W/m 7,6 C 9,2 C 0,0 km/h (0 Bft) 100 %
20.09.2017 05:20 9,2 C 9,2 C 9,2 C 90 % 1020,3 hPa 0,0 l/m 0,0 km/h (0 Bft) N 0 0 min 0,000 mm 0 W/m 7,6 C 9,2 C 0,0 km/h (0 Bft) 100 %
20.09.2017 05:30 9,3 C 9,2 C 9,3 C 90 % 1020,3 hPa 0,0 l/m 0,0 km/h (0 Bft) N 0 0 min 0,000 mm 0 W/m 7,7 C 9,3 C 0,0 km/h (0 Bft) 100 %
20.09.2017 05:40 9,3 C 9,3 C 9,3 C 90 % 1020,3 hPa 0,0 l/m 0,0 km/h (0 Bft) N 0 0 min 0,000 mm 0 W/m 7,7 C 9,3 C 0,0 km/h (0 Bft) 100 %
20.09.2017 05:50 9,4 C 9,3 C 9,4 C 90 % 1020,3 hPa 0,0 l/m 0,0 km/h (0 Bft) N 0 0 min 0,000 mm 0 W/m 7,8 C 9,4 C 0,0 km/h (0 Bft) 100 %
20.09.2017 06:00 9,4 C 9,4 C 9,4 C 90 % 1020,3 hPa 0,0 l/m 1,6 km/h (1 Bft) W-NW 292 0 min 0,000 mm 0 W/m 7,8 C 9,4 C 4,8 km/h (1 Bft) 100 %
20.09.2017 06:10 9,5 C 9,4 C 9,5 C 90 % 1020,3 hPa 0,0 l/m 0,0 km/h (0 Bft) W-NW 292 0 min 0,000 mm 0 W/m 7,9 C 9,5 C 4,8 km/h (1 Bft) 99 %
20.09.2017 06:20 9,5 C 9,5 C 9,5 C 90 % 1020,4 hPa 0,0 l/m 0,0 km/h (0 Bft) N 0 0 min 0,000 mm 0 W/m 7,9 C 9,5 C 0,0 km/h (0 Bft) 100 %
20.09.2017 06:30 9,6 C 9,5 C 9,6 C 90 % 1020,3 hPa 0,0 l/m 0,0 km/h (0 Bft) N 0 0 min 0,000 mm 0 W/m 8,0 C 9,6 C 0,0 km/h (0 Bft) 100 %
20.09.2017 06:40 9,6 C 9,6 C 9,6 C 90 % 1020,3 hPa 0,0 l/m 0,0 km/h (0 Bft) N 0 0 min 0,000 mm 0 W/m 8,0 C 9,6 C 0,0 km/h (0 Bft) 100 %
20.09.2017 06:50 9,6 C 9,6 C 9,6 C 90 % 1020,4 hPa 0,0 l/m 0,0 km/h (0 Bft) N 0 0 min 0,000 mm 0 W/m 8,0 C 9,6 C 0,0 km/h (0 Bft) 100 %
20.09.2017 07:00 9,6 C 9,6 C 9,6 C 90 % 1020,5 hPa 0,0 l/m 0,0 km/h (0 Bft) N 0 0 min 0,000 mm 0 W/m 8,0 C 9,6 C 0,0 km/h (0 Bft) 100 %
20.09.2017 07:10 9,6 C 9,6 C 9,6 C 90 % 1020,6 hPa 0,0 l/m 0,0 km/h (0 Bft) W-NW 292 0 min 0,000 mm 0 W/m 8,0 C 9,6 C 4,8 km/h (1 Bft) 100 %
20.09.2017 07:20 9,7 C 9,6 C 9,7 C 90 % 1020,7 hPa 0,0 l/m 0,0 km/h (0 Bft) N 0 0 min 0,000 mm 5 W/m 8,1 C 9,7 C 0,0 km/h (0 Bft) 99 %
20.09.2017 07:30 9,6 C 9,6 C 9,7 C 90 % 1020,7 hPa 0,0 l/m 0,0 km/h (0 Bft) N 0 0 min 0,000 mm 11 W/m 8,0 C 9,6 C 0,0 km/h (0 Bft) 100 %
20.09.2017 07:40 9,6 C 9,6 C 9,7 C 90 % 1020,8 hPa 0,0 l/m 0,0 km/h (0 Bft) W-NW 292 0 min 0,000 mm 18 W/m 8,0 C 9,6 C 1,6 km/h (1 Bft) 100 %
20.09.2017 07:50 9,4 C 9,4 C 9,6 C 90 % 1020,8 hPa 0,0 l/m 0,0 km/h (0 Bft) N 0 0 min 0,000 mm 26 W/m 7,8 C 9,4 C 0,0 km/h (0 Bft) 95 %
20.09.2017 08:00 9,3 C 9,3 C 9,4 C 90 % 1020,7 hPa 0,0 l/m 0,0 km/h (0 Bft) N 0 0 min 0,000 mm 40 W/m 7,7 C 9,3 C 0,0 km/h (0 Bft) 96 %
20.09.2017 08:10 9,2 C 9,2 C 9,3 C 90 % 1020,6 hPa 0,0 l/m 0,0 km/h (0 Bft) N 0 0 min 0,000 mm 47 W/m 7,6 C 9,2 C 0,0 km/h (0 Bft) 100 %
20.09.2017 08:20 9,2 C 9,2 C 9,2 C 90 % 1020,7 hPa 0,0 l/m 0,0 km/h (0 Bft) N 0 0 min 0,000 mm 100 W/m 7,6 C 9,2 C 0,0 km/h (0 Bft) 100 %
20.09.2017 08:30 9,3 C 9,2 C 9,3 C 90 % 1020,9 hPa 0,0 l/m 1,6 km/h (1 Bft) W 270 0 min 0,000 mm 114 W/m 7,7 C 9,3 C 6,4 km/h (2 Bft) 100 %
20.09.2017 08:40 9,6 C 9,4 C 9,6 C 90 % 1021,1 hPa 0,0 l/m 1,6 km/h (1 Bft) W-NW 292 0 min 0,000 mm 74 W/m 8,0 C 9,6 C 6,4 km/h (2 Bft) 100 %
20.09.2017 08:50 9,7 C 9,6 C 9,7 C 90 % 1021,2 hPa 0,0 l/m 1,6 km/h (1 Bft) W-NW 292 0 min 0,000 mm 56 W/m 8,1 C 9,7 C 8,0 km/h (2 Bft) 100 %
20.09.2017 09:00 9,7 C 9,7 C 9,7 C 90 % 1021,4 hPa 0,0 l/m 1,6 km/h (1 Bft) W-NW 292 0 min 0,025 mm 51 W/m 8,1 C 9,7 C 6,4 km/h (2 Bft) 100 %
20.09.2017 09:10 9,8 C 9,7 C 9,8 C 90 % 1021,5 hPa 0,0 l/m 4,8 km/h (1 Bft) W 270 0 min 0,000 mm 65 W/m 8,2 C 9,8 C 9,7 km/h (2 Bft) 100 %
20.09.2017 09:20 9,9 C 9,8 C 9,9 C 90 % 1021,7 hPa 0,0 l/m 4,8 km/h (1 Bft) W 270 0 min 0,000 mm 76 W/m 8,3 C 9,9 C 11,3 km/h (2 Bft) 100 %
20.09.2017 09:30 9,9 C 9,9 C 9,9 C 90 % 1021,7 hPa 0,0 l/m 4,8 km/h (1 Bft) W 270 0 min 0,000 mm 69 W/m 8,3 C 9,9 C 11,3 km/h (2 Bft) 100 %
20.09.2017 09:40 9,9 C 9,9 C 9,9 C 90 % 1021,8 hPa 0,0 l/m 4,8 km/h (1 Bft) W-SW 247 0 min 0,000 mm 95 W/m 8,3 C 9,9 C 9,7 km/h (2 Bft) 100 %
20.09.2017 09:50 9,9 C 9,9 C 9,9 C 90 % 1021,8 hPa 0,0 l/m 4,8 km/h (1 Bft) W 270 0 min 0,000 mm 130 W/m 8,3 C 9,9 C 11,3 km/h (2 Bft) 100 %
20.09.2017 10:00 10,1 C 9,9 C 10,1 C 90 % 1021,8 hPa 0,0 l/m 3,2 km/h (1 Bft) W 270 0 min 0,051 mm 100 W/m 8,5 C 10,1 C 8,0 km/h (2 Bft) 100 %
20.09.2017 10:10 10,1 C 10,1 C 10,1 C 90 % 1021,8 hPa 0,0 l/m 3,2 km/h (1 Bft) W 270 0 min 0,000 mm 70 W/m 8,5 C 10,1 C 8,0 km/h (2 Bft) 100 %
20.09.2017 10:20 10,1 C 10,0 C 10,1 C 90 % 1021,6 hPa 0,0 l/m 3,2 km/h (1 Bft) W 270 0 min 0,000 mm 139 W/m 8,5 C 10,1 C 6,4 km/h (2 Bft) 100 %
20.09.2017 10:30 10,3 C 10,1 C 10,3 C 89 % 1021,7 hPa 0,0 l/m 1,6 km/h (1 Bft) W 270 10 min 0,000 mm 227 W/m 8,6 C 10,3 C 4,8 km/h (1 Bft) 100 %
20.09.2017 10:40 10,6 C 10,4 C 10,6 C 89 % 1021,6 hPa 0,0 l/m 3,2 km/h (1 Bft) SW 225 10 min 0,000 mm 297 W/m 8,9 C 10,6 C 8,0 km/h (2 Bft) 100 %
20.09.2017 10:50 10,7 C 10,6 C 10,7 C 89 % 1021,8 hPa 0,0 l/m 3,2 km/h (1 Bft) W 270 10 min 0,000 mm 237 W/m 9,0 C 10,7 C 8,0 km/h (2 Bft) 100 %
20.09.2017 11:00 11,0 C 10,7 C 11,0 C 90 % 1021,7 hPa 0,0 l/m 3,2 km/h (1 Bft) W-SW 247 10 min 0,076 mm 239 W/m 9,4 C 11,0 C 9,7 km/h (2 Bft) 100 %
20.09.2017 11:10 11,4 C 11,0 C 11,4 C 90 % 1021,7 hPa 0,0 l/m 3,2 km/h (1 Bft) W-SW 247 10 min 0,000 mm 355 W/m 9,8 C 11,4 C 9,7 km/h (2 Bft) 100 %
20.09.2017 11:20 11,9 C 11,4 C 11,9 C 89 % 1021,8 hPa 0,0 l/m 3,2 km/h (1 Bft) W-SW 247 10 min 0,000 mm 359 W/m 10,1 C 11,9 C 11,3 km/h (2 Bft) 100 %
20.09.2017 11:30 12,2 C 11,9 C 12,2 C 89 % 1021,8 hPa 0,0 l/m 4,8 km/h (1 Bft) SW 225 10 min 0,000 mm 383 W/m 10,4 C 12,2 C 9,7 km/h (2 Bft) 100 %
20.09.2017 11:40 12,9 C 12,2 C 12,9 C 87 % 1021,7 hPa 0,0 l/m 4,8 km/h (1 Bft) SW 225 10 min 0,000 mm 789 W/m 10,8 C 12,9 C 16,1 km/h (3 Bft) 100 %
20.09.2017 11:50 13,8 C 12,9 C 13,8 C 84 % 1021,7 hPa 0,0 l/m 4,8 km/h (1 Bft) SW 225 10 min 0,000 mm 802 W/m 11,1 C 13,8 C 11,3 km/h (2 Bft) 100 %
20.09.2017 12:00 14,1 C 13,8 C 14,1 C 80 % 1021,6 hPa 0,0 l/m 6,4 km/h (2 Bft) W-NW 292 10 min 0,229 mm 534 W/m 10,7 C 14,1 C 16,1 km/h (3 Bft) 100 %
20.09.2017 12:10 13,9 C 13,9 C 14,1 C 81 % 1021,5 hPa 0,0 l/m 4,8 km/h (1 Bft) W-NW 292 10 min 0,000 mm 339 W/m 10,7 C 13,9 C 14,5 km/h (3 Bft) 100 %
20.09.2017 12:20 13,7 C 13,7 C 13,9 C 81 % 1021,5 hPa 0,0 l/m 3,2 km/h (1 Bft) SW 225 10 min 0,000 mm 246 W/m 10,5 C 13,7 C 14,5 km/h (3 Bft) 100 %
20.09.2017 12:30 13,6 C 13,6 C 13,7 C 82 % 1021,5 hPa 0,0 l/m 3,2 km/h (1 Bft) SW 225 10 min 0,000 mm 325 W/m 10,6 C 13,6 C 8,0 km/h (2 Bft) 100 %
20.09.2017 12:40 13,4 C 13,4 C 13,6 C 81 % 1021,6 hPa 0,0 l/m 6,4 km/h (2 Bft) SW 225 10 min 0,000 mm 373 W/m 10,2 C 13,4 C 12,9 km/h (3 Bft) 100 %
20.09.2017 12:50 13,5 C 13,4 C 13,5 C 81 % 1021,5 hPa 0,0 l/m 4,8 km/h (1 Bft) W-NW 292 10 min 0,000 mm 380 W/m 10,3 C 13,5 C 11,3 km/h (2 Bft) 100 %
20.09.2017 13:00 13,5 C 13,4 C 13,5 C 82 % 1021,5 hPa 0,0 l/m 3,2 km/h (1 Bft) W-NW 292 10 min 0,152 mm 281 W/m 10,5 C 13,5 C 8,0 km/h (2 Bft) 100 %
20.09.2017 13:10 13,6 C 13,5 C 13,6 C 81 % 1021,6 hPa 0,0 l/m 3,2 km/h (1 Bft) W 270 10 min 0,000 mm 227 W/m 10,4 C 13,6 C 8,0 km/h (2 Bft) 100 %
20.09.2017 13:20 13,7 C 13,6 C 13,7 C 82 % 1021,5 hPa 0,0 l/m 3,2 km/h (1 Bft) W 270 10 min 0,000 mm 332 W/m 10,7 C 13,7 C 8,0 km/h (2 Bft) 100 %
20.09.2017 13:30 13,9 C 13,7 C 13,9 C 83 % 1021,4 hPa 0,0 l/m 3,2 km/h (1 Bft) W 270 10 min 0,000 mm 654 W/m 11,1 C 13,9 C 9,7 km/h (2 Bft) 100 %
20.09.2017 13:40 14,1 C 13,9 C 14,1 C 80 % 1021,4 hPa 0,0 l/m 6,4 km/h (2 Bft) S-SW 202 10 min 0,000 mm 650 W/m 10,7 C 14,1 C 12,9 km/h (3 Bft) 100 %
20.09.2017 13:50 14,4 C 14,1 C 14,4 C 81 % 1021,2 hPa 0,0 l/m 4,8 km/h (1 Bft) W-SW 247 10 min 0,000 mm 772 W/m 11,2 C 14,4 C 17,7 km/h (3 Bft) 100 %
20.09.2017 14:00 14,9 C 14,4 C 14,9 C 79 % 1021,1 hPa 0,0 l/m 3,2 km/h (1 Bft) W-NW 292 10 min 0,229 mm 735 W/m 11,3 C 14,9 C 17,7 km/h (3 Bft) 100 %
20.09.2017 14:10 15,4 C 14,9 C 15,4 C 76 % 1021,1 hPa 0,0 l/m 6,4 km/h (2 Bft) W 270 10 min 0,000 mm 689 W/m 11,2 C 15,4 C 14,5 km/h (3 Bft) 100 %
20.09.2017 14:20 15,6 C 15,4 C 15,6 C 75 % 1021,1 hPa 0,0 l/m 6,4 km/h (2 Bft) W 270 10 min 0,000 mm 606 W/m 11,2 C 15,6 C 14,5 km/h (3 Bft) 100 %
20.09.2017 14:30 15,9 C 15,6 C 15,9 C 75 % 1021,0 hPa 0,0 l/m 6,4 km/h (2 Bft) W-SW 247 10 min 0,000 mm 568 W/m 11,5 C 15,9 C 16,1 km/h (3 Bft) 100 %
20.09.2017 14:40 16,1 C 15,9 C 16,1 C 69 % 1020,8 hPa 0,0 l/m 8,0 km/h (2 Bft) W 270 10 min 0,000 mm 657 W/m 10,4 C 15,3 C 19,3 km/h (3 Bft) 100 %
20.09.2017 14:50 15,9 C 15,9 C 16,1 C 70 % 1020,9 hPa 0,0 l/m 6,4 km/h (2 Bft) SW 225 10 min 0,000 mm 454 W/m 10,4 C 15,9 C 16,1 km/h (3 Bft) 100 %
20.09.2017 15:00 15,6 C 15,6 C 15,8 C 73 % 1020,8 hPa 0,0 l/m 6,4 km/h (2 Bft) W-NW 292 10 min 0,254 mm 330 W/m 10,8 C 15,6 C 16,1 km/h (3 Bft) 100 %
20.09.2017 15:10 15,7 C 15,6 C 15,7 C 73 % 1020,8 hPa 0,0 l/m 4,8 km/h (1 Bft) W-NW 292 10 min 0,000 mm 696 W/m 10,9 C 15,7 C 16,1 km/h (3 Bft) 100 %
20.09.2017 15:20 15,7 C 15,7 C 15,8 C 72 % 1020,7 hPa 0,0 l/m 8,0 km/h (2 Bft) SW 225 10 min 0,000 mm 548 W/m 10,7 C 14,8 C 19,3 km/h (3 Bft) 100 %
20.09.2017 15:30 16,1 C 15,7 C 16,1 C 70 % 1020,6 hPa 0,0 l/m 6,4 km/h (2 Bft) W-NW 292 10 min 0,000 mm 828 W/m 10,6 C 16,1 C 14,5 km/h (3 Bft) 100 %
20.09.2017 15:40 16,1 C 16,1 C 16,2 C 70 % 1020,5 hPa 0,0 l/m 6,4 km/h (2 Bft) W-NW 292 10 min 0,000 mm 281 W/m 10,6 C 16,1 C 12,9 km/h (3 Bft) 100 %
20.09.2017 15:50 15,6 C 15,6 C 16,1 C 69 % 1020,6 hPa 0,0 l/m 6,4 km/h (2 Bft) W-SW 247 10 min 0,000 mm 174 W/m 9,9 C 15,6 C 16,1 km/h (3 Bft) 100 %
20.09.2017 16:00 15,2 C 15,2 C 15,6 C 74 % 1020,3 hPa 0,0 l/m 6,4 km/h (2 Bft) SW 225 10 min 0,203 mm 316 W/m 10,6 C 15,2 C 14,5 km/h (3 Bft) 100 %
20.09.2017 16:10 15,3 C 15,2 C 15,3 C 72 % 1020,3 hPa 0,0 l/m 6,4 km/h (2 Bft) SW 225 10 min 0,000 mm 264 W/m 10,3 C 15,3 C 17,7 km/h (3 Bft) 100 %
20.09.2017 16:20 15,6 C 15,3 C 15,6 C 71 % 1020,2 hPa 0,0 l/m 4,8 km/h (1 Bft) W 270 10 min 0,000 mm 260 W/m 10,4 C 15,6 C 11,3 km/h (2 Bft) 100 %
20.09.2017 16:30 15,8 C 15,6 C 15,8 C 68 % 1020,2 hPa 0,0 l/m 4,8 km/h (1 Bft) W 270 10 min 0,000 mm 227 W/m 9,9 C 15,8 C 12,9 km/h (3 Bft) 100 %
20.09.2017 16:40 15,7 C 15,7 C 15,8 C 69 % 1020,1 hPa 0,0 l/m 6,4 km/h (2 Bft) W-NW 292 10 min 0,000 mm 176 W/m 10,0 C 15,7 C 12,9 km/h (3 Bft) 100 %
20.09.2017 16:50 16,1 C 15,7 C 16,1 C 69 % 1020,1 hPa 0,0 l/m 6,4 km/h (2 Bft) W-NW 292 10 min 0,000 mm 225 W/m 10,4 C 16,1 C 16,1 km/h (3 Bft) 100 %
20.09.2017 17:00 16,1 C 16,1 C 16,2 C 68 % 1020,3 hPa 0,0 l/m 8,0 km/h (2 Bft) W 270 10 min 0,127 mm 169 W/m 10,2 C 15,3 C 14,5 km/h (3 Bft) 100 %
20.09.2017 17:10 16,1 C 16,0 C 16,1 C 68 % 1020,2 hPa 0,0 l/m 6,4 km/h (2 Bft) W 270 10 min 0,000 mm 202 W/m 10,2 C 16,1 C 20,9 km/h (4 Bft) 100 %
20.09.2017 17:20 16,1 C 16,1 C 16,2 C 70 % 1020,3 hPa 0,0 l/m 11,3 km/h (2 Bft) W-SW 247 10 min 0,000 mm 171 W/m 10,6 C 13,8 C 17,7 km/h (3 Bft) 100 %
20.09.2017 17:30 15,9 C 15,9 C 16,1 C 71 % 1020,4 hPa 0,0 l/m 9,7 km/h (2 Bft) W 270 0 min 0,000 mm 141 W/m 10,6 C 14,2 C 24,1 km/h (4 Bft) 100 %
20.09.2017 17:40 15,2 C 15,2 C 15,9 C 72 % 1020,4 hPa 0,0 l/m 9,7 km/h (2 Bft) W-NW 292 0 min 0,000 mm 76 W/m 10,2 C 13,5 C 22,5 km/h (4 Bft) 99 %
20.09.2017 18:00 14,1 C 14,1 C 15,9 C 75 % 1020,4 hPa 0,0 l/m 5,9 km/h (2 Bft) W 269 0 min 0,076 mm 40 W/m 9,7 C 14,1 C 14,5 km/h (3 Bft) 99 %
20.09.2017 18:10 13,8 C 13,8 C 14,1 C 76 % 1020,5 hPa 0,0 l/m 4,6 km/h (1 Bft) W-NW 302 0 min 0,000 mm 33 W/m 9,6 C 13,8 C 11,3 km/h (2 Bft) 100 %
20.09.2017 18:20 13,5 C 13,5 C 13,8 C 76 % 1020,5 hPa 0,0 l/m 2,5 km/h (1 Bft) NW 304 0 min 0,000 mm 25 W/m 9,4 C 13,5 C 9,7 km/h (2 Bft) 100 %
20.09.2017 18:30 13,3 C 13,3 C 13,5 C 78 % 1020,5 hPa 0,0 l/m 3,2 km/h (1 Bft) W-NW 300 0 min 0,000 mm 21 W/m 9,5 C 13,3 C 9,7 km/h (2 Bft) 100 %
20.09.2017 18:40 13,1 C 13,1 C 13,3 C 80 % 1020,6 hPa 0,0 l/m 4,8 km/h (1 Bft) NW 319 0 min 0,000 mm 18 W/m 9,7 C 13,1 C 11,3 km/h (2 Bft) 100 %
20.09.2017 18:50 13,0 C 13,0 C 13,1 C 81 % 1020,6 hPa 0,0 l/m 1,7 km/h (1 Bft) NW 319 0 min 0,000 mm 16 W/m 9,8 C 13,0 C 8,0 km/h (2 Bft) 100 %
20.09.2017 19:00 12,8 C 12,8 C 13,0 C 82 % 1020,5 hPa 0,0 l/m 0,0 km/h (0 Bft) NW 319 0 min 0,000 mm 9 W/m 9,8 C 12,8 C 0,0 km/h (0 Bft) 100 %
20.09.2017 19:10 12,6 C 12,6 C 12,8 C 84 % 1020,5 hPa 0,0 l/m 0,0 km/h (0 Bft) NW 319 0 min 0,025 mm 5 W/m 10,0 C 12,6 C 0,0 km/h (0 Bft) 100 %
20.09.2017 19:20 12,3 C 12,3 C 12,6 C 84 % 1020,7 hPa 0,0 l/m 0,0 km/h (0 Bft) NW 319 0 min 0,001 mm 0 W/m 9,7 C 12,3 C 1,6 km/h (1 Bft) 100 %
20.09.2017 19:30 12,2 C 12,2 C 12,3 C 86 % 1020,9 hPa 0,0 l/m 0,0 km/h (0 Bft) NW 319 0 min 0,000 mm 0 W/m 9,9 C 12,2 C 1,6 km/h (1 Bft) 100 %
20.09.2017 19:40 11,9 C 11,9 C 12,2 C 86 % 1021,0 hPa 0,0 l/m 0,0 km/h (0 Bft) NW 319 0 min 0,000 mm 0 W/m 9,6 C 11,9 C 0,0 km/h (0 Bft) 100 %
20.09.2017 19:50 11,8 C 11,8 C 11,9 C 86 % 1021,0 hPa 0,0 l/m 0,0 km/h (0 Bft) NW 319 0 min 0,000 mm 0 W/m 9,5 C 11,8 C 0,0 km/h (0 Bft) 100 %
20.09.2017 20:00 11,7 C 11,7 C 11,8 C 85 % 1021,1 hPa 0,0 l/m 0,0 km/h (0 Bft) NW 319 0 min 0,000 mm 0 W/m 9,3 C 11,7 C 0,0 km/h (0 Bft) 100 %
20.09.2017 20:10 11,6 C 11,6 C 11,7 C 86 % 1021,2 hPa 0,0 l/m 0,0 km/h (0 Bft) NW 319 0 min 0,000 mm 0 W/m 9,3 C 11,6 C 0,0 km/h (0 Bft) 100 %
20.09.2017 20:20 11,6 C 11,6 C 11,6 C 87 % 1021,4 hPa 0,0 l/m 0,0 km/h (0 Bft) NW 319 0 min 0,000 mm 0 W/m 9,5 C 11,6 C 0,0 km/h (0 Bft) 100 %
20.09.2017 20:30 11,6 C 11,6 C 11,6 C 87 % 1021,4 hPa 0,0 l/m 0,0 km/h (0 Bft) NW 319 0 min 0,000 mm 0 W/m 9,5 C 11,6 C 0,0 km/h (0 Bft) 100 %
20.09.2017 20:40 11,5 C 11,5 C 11,6 C 88 % 1021,4 hPa 0,0 l/m 0,0 km/h (0 Bft) NW 319 0 min 0,000 mm 0 W/m 9,6 C 11,5 C 0,0 km/h (0 Bft) 100 %
20.09.2017 20:50 11,5 C 11,5 C 11,6 C 88 % 1021,4 hPa 0,0 l/m 0,0 km/h (0 Bft) NW 319 0 min 0,000 mm 0 W/m 9,6 C 11,5 C 0,0 km/h (0 Bft) 100 %
20.09.2017 21:00 11,4 C 11,4 C 11,5 C 88 % 1021,5 hPa 0,0 l/m 0,0 km/h (0 Bft) NW 319 0 min 0,000 mm 0 W/m 9,5 C 11,4 C 0,0 km/h (0 Bft) 100 %
20.09.2017 21:10 11,3 C 11,3 C 11,4 C 88 % 1021,4 hPa 0,0 l/m 0,0 km/h (0 Bft) N 0 0 min 0,000 mm 0 W/m 9,4 C 11,3 C 0,0 km/h (0 Bft) 97 %
20.09.2017 21:20 11,1 C 11,1 C 11,3 C 88 % 1021,4 hPa 0,0 l/m 0,0 km/h (0 Bft) N 0 0 min 0,000 mm 0 W/m 9,2 C 11,1 C 0,0 km/h (0 Bft) 98 %
20.09.2017 21:30 10,8 C 10,8 C 11,1 C 88 % 1021,4 hPa 0,0 l/m 0,0 km/h (0 Bft) N 0 0 min 0,000 mm 0 W/m 8,9 C 10,8 C 0,0 km/h (0 Bft) 98 %
20.09.2017 21:40 10,6 C 10,6 C 10,9 C 89 % 1021,4 hPa 0,0 l/m 0,0 km/h (0 Bft) N 0 0 min 0,000 mm 0 W/m 8,9 C 10,6 C 0,0 km/h (0 Bft) 97 %
20.09.2017 21:50 10,4 C 10,4 C 10,6 C 89 % 1021,4 hPa 0,0 l/m 0,0 km/h (0 Bft) N 0 0 min 0,000 mm 0 W/m 8,7 C 10,4 C 0,0 km/h (0 Bft) 97 %
20.09.2017 22:00 10,3 C 10,3 C 10,4 C 89 % 1021,7 hPa 0,0 l/m 0,0 km/h (0 Bft) N 0 0 min 0,000 mm 0 W/m 8,6 C 10,3 C 0,0 km/h (0 Bft) 97 %
20.09.2017 22:10 10,1 C 10,1 C 10,3 C 89 % 1021,7 hPa 0,0 l/m 0,0 km/h (0 Bft) N 0 0 min 0,000 mm 0 W/m 8,4 C 10,1 C 0,0 km/h (0 Bft) 98 %
20.09.2017 22:20 9,9 C 9,9 C 10,1 C 89 % 1021,8 hPa 0,0 l/m 0,0 km/h (0 Bft) N 0 0 min 0,000 mm 0 W/m 8,2 C 9,9 C 0,0 km/h (0 Bft) 97 %
20.09.2017 22:30 9,8 C 9,8 C 9,9 C 89 % 1021,8 hPa 0,0 l/m 0,0 km/h (0 Bft) N 0 0 min 0,000 mm 0 W/m 8,1 C 9,8 C 0,0 km/h (0 Bft) 98 %
20.09.2017 22:40 9,7 C 9,7 C 9,8 C 89 % 1021,7 hPa 0,0 l/m 0,0 km/h (0 Bft) N 0 0 min 0,000 mm 0 W/m 8,0 C 9,7 C 0,0 km/h (0 Bft) 98 %
20.09.2017 22:50 9,6 C 9,6 C 9,7 C 89 % 1021,7 hPa 0,0 l/m 0,0 km/h (0 Bft) N 0 0 min 0,000 mm 0 W/m 7,9 C 9,6 C 0,0 km/h (0 Bft) 88 %
20.09.2017 23:00 9,3 C 9,3 C 9,6 C 89 % 1021,8 hPa 0,0 l/m 0,0 km/h (0 Bft) N 0 0 min 0,000 mm 0 W/m 7,6 C 9,3 C 0,0 km/h (0 Bft) 98 %
20.09.2017 23:10 9,3 C 9,3 C 9,3 C 89 % 1021,8 hPa 0,0 l/m 0,0 km/h (0 Bft) N 0 0 min 0,000 mm 0 W/m 7,6 C 9,3 C 0,0 km/h (0 Bft) 97 %
20.09.2017 23:20 9,3 C 9,3 C 9,3 C 89 % 1021,7 hPa 0,0 l/m 0,0 km/h (0 Bft) N 0 0 min 0,000 mm 0 W/m 7,6 C 9,3 C 0,0 km/h (0 Bft) 98 %
20.09.2017 23:30 9,2 C 9,2 C 9,3 C 89 % 1021,8 hPa 0,0 l/m 0,0 km/h (0 Bft) N 0 0 min 0,000 mm 0 W/m 7,5 C 9,2 C 0,0 km/h (0 Bft) 98 %
20.09.2017 23:40 9,2 C 9,2 C 9,2 C 89 % 1021,7 hPa 0,0 l/m 0,0 km/h (0 Bft) N 0 0 min 0,000 mm 0 W/m 7,5 C 9,2 C 0,0 km/h (0 Bft) 98 %
20.09.2017 23:50 8,9 C 8,9 C 9,2 C 89 % 1021,7 hPa 0,0 l/m 0,0 km/h (0 Bft) N 0 0 min 0,000 mm 0 W/m 7,2 C 8,9 C 0,0 km/h (0 Bft) 98 %
_ Min-Zeit 23:50 23:50 04:50 16:30 00:00 - 00:00 - - - - - 23:50 23:50 00:00 22:50
Minimum _ 8,9 C 8,9 C 9,1 C 68 % 1019,4 hPa - 0,0 km/h (0 Bft) - - - - - 7,2 C 8,9 C 0,0 km/h (0 Bft) 88 %
_ Max-Zeit 15:40 15:40 15:40 03:40 09:40 00:00 17:20 - - 10:30 15:00 15:30 14:30 15:30 17:30 00:00
Maximum _ 16,2 C 16,1 C 16,2 C 90 % 1021,8 hPa 0,0 l/m 11,3 km/h
W-SW (2 Bft)
- - 10 min 0,254 mm 828 W/m 11,5 C 16,1 C 24,1 km/h
W (4 Bft)
100 %
Durchschnitt _ 11,5 C 11,4 C 11,6 C 85 % 1020,8 hPa #0,0 l/m 2,2 km/h (1 Bft) W - #7:00 h #1,448 mm 268 W/m 9,0 C 11,4 C 5,7 km/h (1 Bft) 99 %
PRIVATE WETTERSTATION BILLIGHEIM-ALLFELD - www.neckar-odenwald-wetter.de - Holger Sonntag